Time;durP1;ratioP1;P1;durP2;ratioP2;P2;SDS_P1;SDS_P2;PMS_P1;PMS_P2;Temp;Humidity;BMP_temperature;BMP_pressure;BME280_temperature;BME280_humidity;BME280_pressure;Samples;Min_cycle;Max_cycle;Signal;HPM_P1;HPM_P2
2022/01/16 00:04:06;;;;;;;0.45;0.45;;;-0.70;99.90;;;;;;4995451;28;20053;-82
2022/01/16 00:06:42;;;;;;;0.22;0.22;;;-0.60;99.90;;;;;;4995663;28;20077;-75
2022/01/16 00:09:08;;;;;;;0.00;0.00;;;-0.60;99.90;;;;;;4996087;28;20102;-79
2022/01/16 00:11:35;;;;;;;0.00;0.00;;;-0.60;99.90;;;;;;4996267;28;20105;-73
2022/01/16 00:14:02;;;;;;;10.77;0.73;;;-0.50;99.90;;;;;;4995753;28;20042;-74
2022/01/16 00:16:28;;;;;;;0.30;0.30;;;-0.60;99.90;;;;;;4995359;28;20117;-79
2022/01/16 00:18:54;;;;;;;0.15;0.15;;;-0.60;99.90;;;;;;4995576;28;20026;-73
2022/01/16 00:21:25;;;;;;;0.50;0.50;;;-0.50;99.90;;;;;;4994401;28;20035;-74
2022/01/16 00:23:52;;;;;;;0.57;0.57;;;-0.60;99.90;;;;;;4995734;28;20026;-79
2022/01/16 00:26:19;;;;;;;1.88;1.10;;;-0.50;99.90;;;;;;4995260;28;20485;-79
2022/01/16 00:28:45;;;;;;;0.43;0.43;;;-0.50;99.90;;;;;;4995687;28;20389;-80
2022/01/16 00:31:12;;;;;;;0.45;0.45;;;-0.60;99.90;;;;;;4995633;28;20107;-73
2022/01/16 00:33:42;;;;;;;0.20;0.20;;;-0.50;99.90;;;;;;4995587;28;20027;-74
2022/01/16 00:36:10;;;;;;;0.57;0.57;;;-0.50;99.90;;;;;;4990386;28;20045;-79
2022/01/16 00:38:38;;;;;;;0.63;0.63;;;-0.50;99.90;;;;;;4990925;28;20109;-79
2022/01/16 00:41:04;;;;;;;0.40;0.40;;;-0.60;99.90;;;;;;4975909;28;20019;-73
2022/01/16 00:43:30;;;;;;;0.75;0.75;;;-0.60;99.90;;;;;;4975990;28;20105;-79
2022/01/16 00:45:55;;;;;;;1.48;1.40;;;-0.60;99.90;;;;;;4987900;28;20366;-73
2022/01/16 00:48:21;;;;;;;0.50;0.50;;;-0.70;99.90;;;;;;4993631;28;20540;-79
2022/01/16 00:50:46;;;;;;;0.15;0.15;;;-0.70;99.90;;;;;;4995168;28;20446;-79
2022/01/16 00:53:12;;;;;;;0.10;0.10;;;-0.70;99.90;;;;;;4994741;28;20453;-79
2022/01/16 00:55:38;;;;;;;0.08;0.08;;;-0.80;99.90;;;;;;4993008;28;20117;-79
2022/01/16 00:58:05;;;;;;;0.68;0.68;;;-0.90;99.90;;;;;;4993784;28;20393;-74
2022/01/16 01:00:32;;;;;;;1.02;0.93;;;-0.90;99.90;;;;;;4992994;28;20034;-73
2022/01/16 01:02:58;;;;;;;0.00;0.00;;;-0.90;99.90;;;;;;4995018;28;20014;-79
2022/01/16 01:05:24;;;;;;;2.00;0.73;;;-0.90;99.90;;;;;;4994949;28;20101;-79
2022/01/16 01:07:50;;;;;;;1.40;1.17;;;-1.00;99.90;;;;;;4993532;28;20493;-79
2022/01/16 01:10:18;;;;;;;0.75;0.75;;;-1.00;99.90;;;;;;4994468;28;20029;-73
2022/01/16 01:12:53;;;;;;;0.60;0.60;;;-0.90;99.90;;;;;;4994049;28;20021;-73
2022/01/16 01:15:22;;;;;;;4.95;1.73;;;-1.00;99.90;;;;;;4994701;28;20046;-79
2022/01/16 01:17:49;;;;;;;0.68;0.68;;;-1.00;99.90;;;;;;4994485;28;20102;-79
2022/01/16 01:20:17;;;;;;;0.17;0.17;;;-1.00;99.90;;;;;;4993308;28;20426;-79
2022/01/16 01:22:47;;;;;;;1.25;0.85;;;-1.10;99.90;;;;;;4994235;28;20034;-73
2022/01/16 01:25:14;;;;;;;1.17;1.00;;;-1.10;99.90;;;;;;4993438;28;20045;-73
2022/01/16 01:27:41;;;;;;;0.85;0.65;;;-1.10;99.90;;;;;;4994137;28;20049;-79
2022/01/16 01:30:20;;;;;;;0.28;0.28;;;-1.10;99.90;;;;;;4993948;28;20106;-79
2022/01/16 01:32:47;;;;;;;0.70;0.63;;;-1.10;99.90;;;;;;4993589;28;20069;-79
2022/01/16 01:35:16;;;;;;;3.58;2.42;;;-1.10;99.90;;;;;;4994269;28;20533;-79
2022/01/16 01:37:43;;;;;;;2.20;2.00;;;-1.10;99.90;;;;;;4994154;28;20402;-73
2022/01/16 01:40:13;;;;;;;0.22;0.22;;;-1.20;99.90;;;;;;4994304;28;20022;-79
2022/01/16 01:51:02;;;;;;;0.95;0.80;;;-1.20;99.90;;;;;;4994329;28;20031;-79
2022/01/16 01:51:22;;;;;;;0.85;0.85;;;-1.30;99.90;;;;;;4993768;28;20076;-73
2022/01/16 01:53:50;;;;;;;0.43;0.43;;;-1.30;99.90;;;;;;4993969;28;20481;-79
2022/01/16 01:56:17;;;;;;;0.52;0.50;;;-1.30;99.90;;;;;;4993186;28;20500;-79
2022/01/16 01:58:44;;;;;;;0.13;0.13;;;-1.30;99.90;;;;;;4994159;28;20026;-79
2022/01/16 02:01:10;;;;;;;4.22;1.80;;;-1.30;99.90;;;;;;4993905;28;20053;-80
2022/01/16 02:06:18;;;;;;;0.63;0.63;;;-1.40;99.90;;;;;;4993742;28;20556;-73
2022/01/16 02:08:46;;;;;;;0.40;0.40;;;-1.40;99.90;;;;;;4993813;28;20081;-80
2022/01/16 02:11:13;;;;;;;1.08;0.75;;;-1.40;99.90;;;;;;4993556;28;20466;-79
2022/01/16 02:13:58;;;;;;;0.82;0.73;;;-1.40;99.90;;;;;;4992980;28;20033;-79
2022/01/16 02:28:01;;;;;;;4.38;2.20;;;-1.50;99.90;;;;;;4993704;28;20068;-80
2022/01/16 02:35:47;;;;;;;0.88;0.88;;;-1.50;99.90;;;;;;4965327;28;20034;-79
2022/01/16 02:38:13;;;;;;;1.83;1.73;;;-1.50;99.90;;;;;;4992921;28;20105;-79
2022/01/16 02:40:44;;;;;;;1.05;1.05;;;-1.40;99.90;;;;;;4993273;28;20066;-74
2022/01/16 02:43:10;;;;;;;0.63;0.63;;;-1.50;99.90;;;;;;4993373;28;20030;-73
2022/01/16 02:45:37;;;;;;;3.50;2.30;;;-1.50;99.90;;;;;;4993211;28;20033;-73
2022/01/16 02:48:06;;;;;;;1.88;1.65;;;-1.50;99.90;;;;;;4992118;28;20500;-79
2022/01/16 02:50:34;;;;;;;3.83;1.08;;;-1.50;99.90;;;;;;4992801;28;20026;-79
2022/01/16 02:53:00;;;;;;;0.65;0.65;;;-1.50;99.90;;;;;;4992772;28;20022;-79
2022/01/16 02:55:26;;;;;;;1.10;0.82;;;-1.50;99.90;;;;;;4992957;28;20027;-74
2022/01/16 02:57:55;;;;;;;0.68;0.68;;;-1.50;99.90;;;;;;4992504;28;20441;-79
2022/01/16 03:00:22;;;;;;;1.75;1.45;;;-1.50;99.90;;;;;;4993207;28;20030;-79
2022/01/16 03:02:49;;;;;;;5.82;2.70;;;-1.50;99.90;;;;;;4993254;28;20027;-79
2022/01/16 03:05:15;;;;;;;4.68;1.30;;;-1.60;99.90;;;;;;4992870;28;20032;-79
2022/01/16 03:07:42;;;;;;;6.03;2.17;;;-1.60;99.90;;;;;;4991661;28;20445;-74
2022/01/16 03:12:55;;;;;;;1.30;1.17;;;-1.60;99.90;;;;;;4992933;28;20029;-79
2022/01/16 03:15:22;;;;;;;0.47;0.47;;;-1.60;99.90;;;;;;4992996;28;20125;-73
2022/01/16 03:23:08;;;;;;;0.20;0.20;;;-1.60;99.90;;;;;;4992654;28;20032;-79
2022/01/16 03:25:34;;;;;;;6.63;1.30;;;-1.60;99.90;;;;;;4996505;28;20404;-73
2022/01/16 03:27:59;;;;;;;2.00;0.88;;;-1.60;99.90;;;;;;4996768;28;20045;-79
2022/01/16 03:30:25;;;;;;;0.47;0.47;;;-1.50;99.90;;;;;;4996619;28;20030;-73
2022/01/16 03:32:51;;;;;;;1.77;1.60;;;-1.60;99.90;;;;;;4996674;28;20046;-74
2022/01/16 03:35:16;;;;;;;0.05;0.05;;;-1.50;99.90;;;;;;4996716;28;20105;-73
2022/01/16 03:37:42;;;;;;;0.22;0.22;;;-1.40;99.90;;;;;;4996202;28;20061;-79
2022/01/16 03:40:11;;;;;;;0.68;0.47;;;-1.30;99.90;;;;;;4996565;28;20027;-79
2022/01/16 03:42:37;;;;;;;1.67;1.58;;;-1.30;99.90;;;;;;4996433;28;20021;-79
2022/01/16 03:45:05;;;;;;;0.28;0.28;;;-1.10;99.90;;;;;;4994486;28;20018;-73
2022/01/16 03:47:30;;;;;;;1.65;1.60;;;-1.10;99.90;;;;;;4996105;28;20021;-73
2022/01/16 03:49:56;;;;;;;0.68;0.68;;;-1.10;99.90;;;;;;4996279;28;20014;-74
2022/01/16 03:52:21;;;;;;;0.47;0.43;;;-1.10;99.90;;;;;;4996022;28;20429;-79
2022/01/16 03:54:47;;;;;;;5.32;2.20;;;-1.00;99.90;;;;;;4996150;28;20504;-79
2022/01/16 03:57:13;;;;;;;1.30;1.20;;;-0.90;99.90;;;;;;4995428;28;20042;-79
2022/01/16 03:59:38;;;;;;;0.45;0.45;;;-0.90;99.90;;;;;;4996324;28;20026;-73
2022/01/16 04:02:04;;;;;;;1.20;1.02;;;-0.80;99.90;;;;;;4996142;28;20105;-74
2022/01/16 04:04:30;;;;;;;0.13;0.13;;;-0.70;99.90;;;;;;4996041;28;20585;-79
2022/01/16 04:06:56;;;;;;;0.70;0.70;;;-0.80;99.90;;;;;;4994626;28;20058;-79
2022/01/16 04:09:22;;;;;;;0.43;0.43;;;-0.80;99.90;;;;;;4995975;28;20080;-79
2022/01/16 04:11:52;;;;;;;0.30;0.30;;;-0.70;99.90;;;;;;4993778;28;20499;-73
2022/01/16 04:17:04;;;;;;;0.93;0.75;;;-0.70;99.90;;;;;;4995728;28;20046;-79
2022/01/16 04:19:29;;;;;;;0.32;0.32;;;-0.60;99.90;;;;;;4995628;28;20026;-79
2022/01/16 04:21:55;;;;;;;2.28;0.90;;;-0.60;99.90;;;;;;4995632;28;20524;-79
2022/01/16 04:24:20;;;;;;;0.63;0.63;;;-0.60;99.90;;;;;;4995588;28;20027;-79
2022/01/16 04:26:46;;;;;;;1.33;1.25;;;-0.60;99.90;;;;;;4994376;28;20041;-74
2022/01/16 04:29:12;;;;;;;2.80;1.70;;;-0.50;99.90;;;;;;4995687;28;20077;-79
2022/01/16 04:31:37;;;;;;;7.50;2.33;;;-0.50;99.90;;;;;;4994169;28;20484;-79
2022/01/16 04:34:03;;;;;;;0.57;0.57;;;-0.50;99.90;;;;;;4995475;28;20093;-79
2022/01/16 04:36:29;;;;;;;3.13;1.45;;;-0.40;99.90;;;;;;4994138;28;20030;-79
2022/01/16 04:38:54;;;;;;;1.15;0.80;;;-0.40;99.90;;;;;;4995544;28;20073;-73
2022/01/16 04:44:05;;;;;;;0.90;0.85;;;-0.30;99.90;;;;;;4995447;28;20033;-79
2022/01/16 04:46:32;;;;;;;0.98;0.50;;;-0.30;99.90;;;;;;4993676;28;20054;-79
2022/01/16 04:49:00;;;;;;;5.40;1.77;;;-0.20;99.90;;;;;;4995170;28;20043;-79
2022/01/16 04:51:27;;;;;;;2.92;1.45;;;-0.20;99.90;;;;;;4994990;28;20041;-79
2022/01/16 04:53:52;;;;;;;0.43;0.43;;;-0.20;99.90;;;;;;4993731;28;20453;-73
2022/01/16 04:56:18;;;;;;;1.25;1.15;;;-0.10;99.90;;;;;;4995180;28;20026;-79
2022/01/16 04:58:44;;;;;;;0.63;0.63;;;-0.10;99.90;;;;;;4992497;28;20030;-74
2022/01/16 05:01:11;;;;;;;2.25;1.40;;;-0.10;99.90;;;;;;4993706;28;20022;-79
2022/01/16 05:03:37;;;;;;;0.25;0.25;;;-0.10;99.90;;;;;;4995068;28;20034;-79
2022/01/16 05:06:04;;;;;;;1.20;1.00;;;0.00;99.90;;;;;;4994765;28;20026;-79
2022/01/16 05:08:30;;;;;;;3.13;1.70;;;0.00;99.90;;;;;;4994952;28;20030;-79
2022/01/16 05:10:57;;;;;;;1.10;1.08;;;0.00;99.90;;;;;;4994752;28;20053;-79
2022/01/16 05:18:39;;;;;;;0.40;0.40;;;0.00;99.90;;;;;;4994876;28;20093;-73
2022/01/16 05:21:06;;;;;;;0.13;0.13;;;0.10;99.90;;;;;;4994630;28;20072;-79
2022/01/16 05:23:32;;;;;;;3.00;1.42;;;0.10;99.90;;;;;;4994577;28;20030;-79
2022/01/16 05:26:00;;;;;;;2.35;1.95;;;0.20;99.90;;;;;;4993349;28;20173;-79
2022/01/16 05:28:26;;;;;;;1.13;1.02;;;0.20;99.90;;;;;;4993193;28;20038;-73
2022/01/16 05:30:52;;;;;;;0.45;0.45;;;0.30;99.90;;;;;;4994393;28;20033;-73
2022/01/16 05:33:18;;;;;;;0.82;0.82;;;0.40;99.90;;;;;;4994500;28;20095;-74
2022/01/16 05:35:44;;;;;;;1.85;1.75;;;0.30;99.90;;;;;;4994243;28;20018;-74
2022/01/16 05:38:11;;;;;;;0.52;0.52;;;0.30;99.90;;;;;;4992821;28;20034;-79
2022/01/16 05:40:38;;;;;;;0.50;0.50;;;0.40;99.90;;;;;;4994520;28;20026;-79
2022/01/16 05:43:04;;;;;;;0.93;0.93;;;0.40;99.90;;;;;;4993100;28;20046;-73
2022/01/16 05:45:29;;;;;;;0.63;0.63;;;0.40;99.90;;;;;;4993804;28;20022;-73
2022/01/16 05:47:55;;;;;;;1.23;1.13;;;0.40;99.90;;;;;;4993942;28;20065;-79
2022/01/16 05:50:22;;;;;;;0.00;0.00;;;0.50;99.90;;;;;;4994068;28;20474;-79
2022/01/16 05:52:47;;;;;;;0.85;0.65;;;0.40;99.90;;;;;;4993758;28;20033;-79
2022/01/16 05:55:14;;;;;;;0.70;0.70;;;0.40;99.90;;;;;;4994115;28;20022;-79
2022/01/16 05:57:40;;;;;;;0.55;0.55;;;0.40;99.90;;;;;;4993577;28;20042;-73
2022/01/16 06:00:07;;;;;;;1.30;1.20;;;0.40;99.90;;;;;;4993121;28;20073;-79
2022/01/16 06:02:33;;;;;;;0.73;0.65;;;0.40;99.90;;;;;;4994027;28;20466;-79
2022/01/16 06:04:58;;;;;;;1.35;1.25;;;0.50;99.90;;;;;;4993830;28;20076;-79
2022/01/16 06:07:24;;;;;;;0.20;0.20;;;0.50;99.90;;;;;;4993646;28;20026;-79
2022/01/16 06:09:52;;;;;;;0.10;0.10;;;0.50;99.90;;;;;;4993731;28;20022;-74
2022/01/16 06:12:18;;;;;;;3.90;2.33;;;0.50;99.90;;;;;;4993797;28;20474;-74
2022/01/16 06:14:44;;;;;;;1.40;1.35;;;0.50;99.90;;;;;;4993565;28;20042;-79
2022/01/16 06:17:09;;;;;;;0.90;0.90;;;0.50;99.90;;;;;;4993736;28;20383;-79
2022/01/16 06:19:35;;;;;;;0.98;0.85;;;0.50;99.90;;;;;;4993440;28;20504;-79
2022/01/16 06:22:01;;;;;;;0.52;0.52;;;0.60;99.90;;;;;;4993261;28;20030;-74
2022/01/16 06:24:26;;;;;;;3.30;1.70;;;0.60;99.90;;;;;;4993534;28;20552;-74
2022/01/16 06:26:52;;;;;;;0.55;0.50;;;0.60;99.90;;;;;;4993462;28;20122;-79
2022/01/16 06:29:20;;;;;;;2.75;0.40;;;0.60;99.90;;;;;;4993532;28;20066;-79
2022/01/16 06:31:46;;;;;;;1.10;1.10;;;0.60;99.90;;;;;;4993452;28;20050;-79
2022/01/16 06:34:12;;;;;;;2.47;2.28;;;0.60;99.90;;;;;;4993366;28;20034;-79
2022/01/16 06:36:38;;;;;;;0.63;0.63;;;0.60;99.90;;;;;;4993038;28;20061;-74
2022/01/16 06:39:06;;;;;;;0.60;0.55;;;0.60;99.90;;;;;;4992029;28;20105;-79
2022/01/16 06:41:33;;;;;;;1.00;1.00;;;0.60;99.90;;;;;;4992026;28;20125;-79
2022/01/16 06:43:59;;;;;;;1.20;1.20;;;0.60;99.90;;;;;;4993381;28;20444;-79
2022/01/16 06:46:25;;;;;;;2.28;1.70;;;0.60;99.90;;;;;;4992930;28;20042;-73
2022/01/16 06:48:51;;;;;;;0.10;0.10;;;0.50;99.90;;;;;;4993294;28;20516;-79
2022/01/16 06:51:19;;;;;;;0.28;0.28;;;0.50;99.90;;;;;;4993207;28;20037;-79
2022/01/16 06:53:49;;;;;;;0.65;0.65;;;0.50;99.90;;;;;;4991722;28;20113;-74
2022/01/16 06:56:16;;;;;;;0.25;0.25;;;0.50;99.90;;;;;;4993075;28;20080;-73
2022/01/16 06:58:42;;;;;;;0.43;0.43;;;0.50;99.90;;;;;;4994715;28;20019;-79
2022/01/16 07:01:08;;;;;;;0.70;0.63;;;0.40;99.90;;;;;;4999212;28;20030;-73
2022/01/16 07:03:34;;;;;;;0.20;0.15;;;0.40;99.90;;;;;;4999628;28;20050;-79
2022/01/16 07:06:00;;;;;;;0.50;0.50;;;0.40;99.90;;;;;;4998169;28;20065;-74
2022/01/16 07:08:26;;;;;;;0.25;0.25;;;0.40;99.90;;;;;;4998235;28;20030;-74
2022/01/16 07:10:57;;;;;;;2.28;0.95;;;0.40;99.90;;;;;;4998532;28;20109;-79
2022/01/16 07:13:24;;;;;;;3.08;1.98;;;0.30;99.90;;;;;;4999731;28;20085;-79
2022/01/16 07:15:50;;;;;;;0.17;0.05;;;0.30;99.90;;;;;;4998233;28;20613;-79
2022/01/16 07:18:17;;;;;;;0.40;0.40;;;0.20;99.90;;;;;;4999236;28;20501;-73
2022/01/16 07:20:44;;;;;;;1.08;0.90;;;0.20;99.90;;;;;;4998166;28;20085;-79
2022/01/16 07:23:10;;;;;;;0.77;0.77;;;0.10;99.90;;;;;;4997925;28;20033;-79
2022/01/16 07:25:36;;;;;;;1.88;1.02;;;0.10;99.90;;;;;;4999446;28;20026;-79
2022/01/16 07:28:01;;;;;;;1.38;0.75;;;0.10;99.90;;;;;;4999388;28;20521;-73
2022/01/16 07:30:27;;;;;;;0.10;0.10;;;0.00;99.90;;;;;;4997875;28;20042;-79
2022/01/16 07:32:53;;;;;;;2.90;1.75;;;0.00;99.90;;;;;;4999488;28;20023;-79
2022/01/16 07:35:19;;;;;;;4.45;1.90;;;0.00;99.90;;;;;;4999447;28;20022;-79
2022/01/16 07:37:44;;;;;;;1.95;1.85;;;-0.10;99.90;;;;;;4994406;28;20035;-79
2022/01/16 07:40:11;;;;;;;0.40;0.40;;;-0.10;99.90;;;;;;4979761;28;20098;-74
2022/01/16 07:42:36;;;;;;;2.03;1.75;;;-0.10;99.90;;;;;;4979970;28;20074;-73
2022/01/16 07:45:03;;;;;;;1.13;1.05;;;-0.10;99.90;;;;;;4984548;28;20437;-79
2022/01/16 07:47:29;;;;;;;3.70;1.27;;;-0.10;99.90;;;;;;4997675;28;20156;-79
2022/01/16 07:49:55;;;;;;;0.90;0.90;;;-0.10;99.90;;;;;;4999283;28;20034;-80
2022/01/16 07:52:21;;;;;;;1.02;1.02;;;-0.10;99.90;;;;;;4998858;28;20026;-79
2022/01/16 07:54:46;;;;;;;1.02;1.00;;;-0.10;99.90;;;;;;4998803;28;20042;-73
2022/01/16 07:57:12;;;;;;;1.55;0.88;;;-0.10;99.90;;;;;;4999233;28;20037;-79
2022/01/16 07:59:38;;;;;;;0.63;0.60;;;-0.10;99.90;;;;;;4998947;28;20026;-79
2022/01/16 08:02:04;;;;;;;0.70;0.70;;;-0.10;99.90;;;;;;4998657;28;20022;-74
2022/01/16 08:04:30;;;;;;;0.98;0.95;;;-0.10;99.90;;;;;;4999065;28;20426;-79
2022/01/16 08:06:55;;;;;;;0.90;0.80;;;-0.10;99.90;;;;;;4997471;28;20121;-79
2022/01/16 08:09:21;;;;;;;1.23;1.13;;;0.00;99.90;;;;;;4998788;28;20045;-79
2022/01/16 08:11:47;;;;;;;0.63;0.63;;;-0.10;99.90;;;;;;4995563;28;20036;-78
2022/01/16 08:14:12;;;;;;;1.75;1.13;;;0.00;99.90;;;;;;4996033;28;20129;-79
2022/01/16 08:16:38;;;;;;;1.15;1.15;;;0.00;99.90;;;;;;4995863;28;20054;-73
2022/01/16 08:19:04;;;;;;;3.03;2.42;;;0.10;99.90;;;;;;4995788;28;20390;-73
2022/01/16 08:21:29;;;;;;;1.00;1.00;;;0.10;99.90;;;;;;4995581;28;20027;-79
2022/01/16 08:23:55;;;;;;;0.00;0.00;;;0.20;99.90;;;;;;4995613;28;20543;-79
2022/01/16 08:26:21;;;;;;;1.27;1.05;;;0.20;99.90;;;;;;4995696;28;20018;-79
2022/01/16 08:28:46;;;;;;;1.17;1.17;;;0.30;99.90;;;;;;4995382;28;20035;-79
2022/01/16 08:31:12;;;;;;;1.25;1.15;;;0.20;99.90;;;;;;4995627;28;20525;-79
2022/01/16 08:33:38;;;;;;;1.33;1.23;;;0.30;99.90;;;;;;4995614;28;20061;-73
2022/01/16 08:36:04;;;;;;;5.00;3.03;;;0.30;99.90;;;;;;4995466;28;20018;-78
2022/01/16 08:38:30;;;;;;;4.07;2.13;;;0.20;99.90;;;;;;4995090;28;20022;-79
2022/01/16 08:40:56;;;;;;;0.82;0.82;;;0.30;99.90;;;;;;4995629;28;20022;-79
2022/01/16 08:43:23;;;;;;;1.70;1.60;;;0.30;99.90;;;;;;4995572;28;20034;-79
2022/01/16 08:45:49;;;;;;;3.08;2.13;;;0.30;99.90;;;;;;4994898;28;20022;-73
2022/01/16 08:48:15;;;;;;;1.70;1.33;;;0.40;99.90;;;;;;4995148;28;20546;-74
2022/01/16 08:50:41;;;;;;;1.17;1.13;;;0.50;99.90;;;;;;4995219;28;20031;-79
2022/01/16 08:53:07;;;;;;;1.95;1.67;;;0.50;99.90;;;;;;4994708;28;20035;-79
2022/01/16 08:55:34;;;;;;;3.03;1.60;;;0.50;99.90;;;;;;4995377;28;20022;-79
2022/01/16 08:58:01;;;;;;;1.00;0.93;;;0.50;99.90;;;;;;4995267;28;20026;-73
2022/01/16 09:00:27;;;;;;;1.50;1.42;;;0.60;99.90;;;;;;4994634;28;20052;-79
2022/01/16 09:02:53;;;;;;;0.63;0.63;;;0.60;99.90;;;;;;4993434;28;20521;-79
2022/01/16 09:05:18;;;;;;;1.17;1.13;;;0.60;99.90;;;;;;4995169;28;20065;-74
2022/01/16 09:07:44;;;;;;;1.02;1.02;;;0.60;99.90;;;;;;4993334;28;20125;-79
2022/01/16 09:10:10;;;;;;;2.45;1.83;;;0.70;99.90;;;;;;4994548;28;20030;-79
2022/01/16 09:12:36;;;;;;;0.85;0.85;;;0.70;99.90;;;;;;4993698;28;20026;-74
2022/01/16 09:15:07;;;;;;;1.50;1.40;;;0.70;99.90;;;;;;4993280;28;20053;-79
2022/01/16 09:17:32;;;;;;;4.40;1.08;;;0.70;99.90;;;;;;4994930;28;20381;-79
2022/01/16 09:19:58;;;;;;;1.70;0.60;;;0.80;99.90;;;;;;4994190;28;20030;-73
2022/01/16 09:22:24;;;;;;;1.23;1.20;;;0.80;99.90;;;;;;4993578;28;20031;-79
2022/01/16 09:24:50;;;;;;;0.93;0.93;;;0.90;99.90;;;;;;4994827;28;20093;-73
2022/01/16 09:27:18;;;;;;;0.20;0.20;;;0.90;99.90;;;;;;4994628;28;20440;-79
2022/01/16 09:29:44;;;;;;;0.20;0.20;;;1.00;99.90;;;;;;4993337;28;20397;-79
2022/01/16 09:32:13;;;;;;;0.98;0.82;;;1.10;99.90;;;;;;4993002;28;20485;-78
2022/01/16 09:34:40;;;;;;;0.55;0.55;;;1.20;99.90;;;;;;4994554;28;20072;-79
2022/01/16 09:37:09;;;;;;;1.58;1.35;;;1.20;99.90;;;;;;4992841;28;20030;-79
2022/01/16 09:39:41;;;;;;;0.85;0.85;;;1.20;99.90;;;;;;4994384;28;20019;-73
2022/01/16 09:42:08;;;;;;;0.93;0.88;;;1.30;99.90;;;;;;4994387;28;20030;-74
2022/01/16 09:44:38;;;;;;;1.55;1.48;;;1.30;99.90;;;;;;4994193;28;20066;-78
2022/01/16 09:47:04;;;;;;;0.63;0.63;;;1.30;99.90;;;;;;4993995;28;20072;-79
2022/01/16 09:49:30;;;;;;;3.88;2.60;;;1.40;99.90;;;;;;4992909;28;20026;-79
2022/01/16 09:51:56;;;;;;;2.88;1.98;;;1.50;99.90;;;;;;4992453;28;20100;-73
2022/01/16 09:54:22;;;;;;;2.15;2.00;;;1.60;99.90;;;;;;4993983;28;20032;-79
2022/01/16 09:56:49;;;;;;;2.85;1.88;;;1.70;99.90;;;;;;4994190;28;20121;-79
2022/01/16 09:59:15;;;;;;;1.55;1.45;;;1.90;99.90;;;;;;4994054;28;20097;-79
2022/01/16 10:01:40;;;;;;;2.05;1.67;;;1.90;99.90;;;;;;4993211;28;20109;-74
2022/01/16 10:04:39;;;;;;;5.82;1.65;;;2.00;99.90;;;;;;4994017;28;20030;-74
2022/01/16 10:07:12;;;;;;;0.98;0.93;;;2.00;99.90;;;;;;4992307;28;20478;-73
2022/01/16 10:09:40;;;;;;;1.80;1.70;;;1.90;99.90;;;;;;4993718;28;20032;-73
2022/01/16 10:12:17;;;;;;;20.00;3.08;;;1.70;99.90;;;;;;4993112;28;20080;-79
2022/01/16 10:14:47;;;;;;;1.42;1.30;;;1.60;99.90;;;;;;4993959;28;20034;-79
2022/01/16 10:17:19;;;;;;;4.25;2.53;;;1.60;99.90;;;;;;4993673;28;20128;-78
2022/01/16 10:19:56;;;;;;;1.48;1.38;;;1.60;99.90;;;;;;4993531;28;20022;-74
2022/01/16 10:22:21;;;;;;;0.60;0.60;;;1.70;99.90;;;;;;4993169;28;20113;-79
2022/01/16 10:24:52;;;;;;;3.15;2.05;;;1.80;99.90;;;;;;4993681;28;20061;-74
2022/01/16 10:27:19;;;;;;;0.85;0.85;;;1.70;99.90;;;;;;4993568;28;20494;-79
2022/01/16 10:29:51;;;;;;;0.85;0.85;;;1.70;99.90;;;;;;4992136;28;20029;-73
2022/01/16 10:32:19;;;;;;;1.13;1.10;;;1.80;99.90;;;;;;4993328;28;20405;-73
2022/01/16 10:34:48;;;;;;;2.75;2.15;;;1.80;99.90;;;;;;4991670;28;20027;-79
2022/01/16 10:37:31;;;;;;;0.52;0.52;;;1.80;99.90;;;;;;4993144;28;20106;-78
2022/01/16 10:39:56;;;;;;;;;;;1.70;99.90;;;;;;4993735;28;20486;-80
2022/01/16 10:42:23;;;;;;;1.77;1.65;;;1.80;99.90;;;;;;4993411;28;19946;-74
2022/01/16 10:45:01;;;;;;;6.18;0.93;;;1.80;99.90;;;;;;4990716;28;20109;-73
2022/01/16 10:47:29;;;;;;;1.10;0.88;;;2.00;99.90;;;;;;4993082;28;20026;-79
2022/01/16 10:50:14;;;;;;;0.05;0.05;;;2.10;99.90;;;;;;4993166;28;20092;-73
2022/01/16 10:52:53;;;;;;;1.15;1.10;;;2.20;99.90;;;;;;4992813;28;20023;-78
2022/01/16 10:55:21;;;;;;;0.82;0.82;;;2.30;99.90;;;;;;4993254;28;20478;-74
2022/01/16 10:57:48;;;;;;;0.60;0.60;;;2.30;99.90;;;;;;4993277;28;20485;-74
2022/01/16 11:00:22;;;;;;;2.55;1.38;;;2.30;99.90;;;;;;4993187;28;20425;-73
2022/01/16 11:02:50;;;;;;;1.13;0.98;;;2.20;99.90;;;;;;4992336;28;20097;-78
2022/01/16 11:05:20;;;;;;;0.52;0.52;;;2.10;99.90;;;;;;4993190;28;20042;-78
2022/01/16 11:07:54;;;;;;;5.63;1.42;;;2.10;99.90;;;;;;4991582;28;20029;-78
2022/01/16 11:10:28;;;;;;;0.40;0.40;;;2.20;99.90;;;;;;4992667;28;20481;-73
2022/01/16 11:12:56;;;;;;;0.50;0.50;;;2.30;99.90;;;;;;4991909;28;20037;-78
2022/01/16 11:15:23;;;;;;;0.30;0.30;;;2.30;99.90;;;;;;4992956;28;20051;-79
2022/01/16 11:17:49;;;;;;;1.30;1.20;;;2.30;99.90;;;;;;4991410;28;20519;-78
2022/01/16 11:20:18;;;;;;;0.10;0.10;;;2.20;99.90;;;;;;4992926;28;20102;-79
2022/01/16 11:25:31;;;;;;;1.27;0.73;;;2.20;99.90;;;;;;4993283;28;20097;-79
2022/01/16 11:28:09;;;;;;;0.98;0.85;;;2.30;99.90;;;;;;4992991;28;20038;-73
2022/01/16 11:30:39;;;;;;;0.08;0.08;;;2.30;99.90;;;;;;4992966;28;20026;-79
2022/01/16 11:33:05;;;;;;;0.45;0.45;;;2.30;99.90;;;;;;4992880;28;20387;-73
2022/01/16 11:35:39;;;;;;;0.30;0.30;;;2.30;99.90;;;;;;4992921;28;20023;-79
2022/01/16 11:38:05;;;;;;;0.28;0.28;;;2.40;99.90;;;;;;4992432;28;20022;-79
2022/01/16 11:40:47;;;;;;;0.50;0.50;;;2.40;99.90;;;;;;4991597;28;20014;-78
2022/01/16 11:43:30;;;;;;;0.50;0.50;;;2.40;99.90;;;;;;4992961;28;20042;-79
2022/01/16 11:46:02;;;;;;;0.68;0.68;;;2.40;99.90;;;;;;4994839;28;20101;-79
2022/01/16 11:48:37;;;;;;;0.20;0.20;;;2.40;99.90;;;;;;4994964;28;20049;-73
2022/01/16 11:51:05;;;;;;;0.15;0.15;;;2.40;99.90;;;;;;4996672;28;20030;-77
2022/01/16 11:53:53;;;;;;;0.32;0.32;;;2.50;99.90;;;;;;4995794;28;20492;-79
2022/01/16 11:56:40;;;;;;;0.40;0.40;;;2.60;99.90;;;;;;4996335;28;20397;-79
2022/01/16 11:59:12;;;;;;;0.32;0.32;;;2.50;99.90;;;;;;4995925;28;20101;-79
2022/01/16 12:01:43;;;;;;;0.10;0.10;;;2.60;99.90;;;;;;4996003;28;20062;-73
2022/01/16 12:04:28;;;;;;;2.13;0.90;;;2.70;99.90;;;;;;4995410;28;20026;-74
2022/01/16 12:06:54;;;;;;;0.00;0.00;;;2.80;99.90;;;;;;4995609;28;20054;-79
2022/01/16 12:10:16;;;;;;;0.05;0.05;;;2.70;99.90;;;;;;4995448;28;20030;-74
2022/01/16 12:12:23;;;;;;;0.10;0.10;;;2.70;99.90;;;;;;4990545;28;20034;-79
2022/01/16 12:15:09;;;;;;;0.20;0.20;;;2.70;99.90;;;;;;4996200;28;20049;-73
2022/01/16 12:17:49;;;;;;;0.32;0.22;;;2.90;99.90;;;;;;4994530;28;20038;-79
2022/01/16 12:20:17;;;;;;;0.00;0.00;;;2.90;99.90;;;;;;4995885;28;20032;-79
2022/01/16 12:22:44;;;;;;;0.35;0.35;;;2.80;99.90;;;;;;4994212;28;20473;-79
2022/01/16 12:25:16;;;;;;;3.03;1.05;;;3.00;99.90;;;;;;4995803;28;20409;-79
2022/01/16 12:27:45;;;;;;;0.13;0.13;;;3.00;99.90;;;;;;4995739;28;20616;-73
2022/01/16 12:30:32;;;;;;;0.20;0.20;;;3.00;99.90;;;;;;4995616;28;20025;-78
2022/01/16 12:33:10;;;;;;;0.00;0.00;;;3.10;99.90;;;;;;4995704;28;20409;-79
2022/01/16 12:35:42;;;;;;;0.00;0.00;;;3.10;99.90;;;;;;4995773;28;20034;-78
2022/01/16 12:38:13;;;;;;;0.85;0.47;;;3.20;99.90;;;;;;4993724;28;20030;-78
2022/01/16 12:40:42;;;;;;;0.10;0.10;;;3.20;99.90;;;;;;4995620;28;20068;-73
2022/01/16 12:43:12;;;;;;;0.60;0.60;;;3.20;99.90;;;;;;4995644;28;20397;-79
2022/01/16 12:45:41;;;;;;;1.17;1.17;;;3.30;99.90;;;;;;4995239;28;20030;-79
2022/01/16 12:48:07;;;;;;;0.10;0.10;;;3.40;99.90;;;;;;4994815;28;20022;-79
2022/01/16 12:50:34;;;;;;;0.30;0.30;;;3.40;99.90;;;;;;4994590;28;20061;-79
2022/01/16 12:52:59;;;;;;;0.13;0.13;;;3.50;99.90;;;;;;4993466;28;20038;-73
2022/01/16 12:55:33;;;;;;;0.40;0.40;;;3.60;99.90;;;;;;4995239;28;20026;-73
2022/01/16 12:58:18;;;;;;;0.55;0.55;;;3.60;99.90;;;;;;4994405;28;20508;-79
2022/01/16 13:01:05;;;;;;;0.20;0.20;;;3.70;99.90;;;;;;4995047;28;20053;-79
2022/01/16 13:03:33;;;;;;;0.17;0.17;;;3.50;99.90;;;;;;4994442;28;20023;-79
2022/01/16 13:06:23;;;;;;;0.35;0.35;;;3.40;99.90;;;;;;4994991;28;20038;-73
2022/01/16 13:09:03;;;;;;;0.22;0.22;;;3.40;99.90;;;;;;4994929;28;20371;-74
2022/01/16 13:11:38;;;;;;;0.10;0.10;;;3.40;99.90;;;;;;4993994;28;20026;-79
2022/01/16 13:14:06;;;;;;;0.10;0.10;;;3.50;99.90;;;;;;4995020;28;20026;-79
2022/01/16 13:16:37;;;;;;;0.88;0.88;;;3.60;99.90;;;;;;4993470;28;20121;-79
2022/01/16 13:19:11;;;;;;;4.95;1.83;;;3.70;99.90;;;;;;4994710;28;20030;-73
2022/01/16 13:25:07;;;;;;;0.10;0.10;;;3.60;99.90;;;;;;4982957;28;20478;-79
2022/01/16 13:27:43;;;;;;;1.00;0.57;;;3.50;99.90;;;;;;4994553;28;20141;-79
2022/01/16 13:30:17;;;;;;;0.40;0.40;;;3.40;99.90;;;;;;4994700;28;20022;-79
2022/01/16 13:32:43;;;;;;;0.88;0.88;;;3.50;99.90;;;;;;4994527;28;20062;-74
2022/01/16 13:35:21;;;;;;;0.32;0.32;;;3.50;99.90;;;;;;4994636;28;20046;-79
2022/01/16 13:37:47;;;;;;;0.28;0.20;;;3.40;99.90;;;;;;4994305;28;20061;-79
2022/01/16 13:40:15;;;;;;;0.88;0.80;;;3.50;99.90;;;;;;4989607;28;20038;-79
2022/01/16 13:43:01;;;;;;;4.65;1.05;;;3.50;99.90;;;;;;4989783;28;20069;-79
2022/01/16 13:45:35;;;;;;;0.17;0.17;;;3.30;99.90;;;;;;4982308;28;20393;-74
2022/01/16 13:48:10;;;;;;;0.50;0.50;;;3.30;99.90;;;;;;4993967;28;20027;-79
2022/01/16 13:50:42;;;;;;;0.00;0.00;;;3.20;99.90;;;;;;4994284;28;20104;-73
2022/01/16 13:53:23;;;;;;;0.52;0.52;;;3.30;99.90;;;;;;4993863;28;20105;-79